Cfl Proud — PBUI — position and weather

sailwx.info

Track history (hours):
 
Tides and Currents Weather Stations Pressure Air Temp Water Temp Dewpoint Dewpoint Depression Visibility Wind Speed Wind Dir Waves Ship Positions

Cfl Proud

Last reported at 2018-Feb-20 16:03 UTC. Time now 2018-Feb-22 10:40 UTC.
Position N 35°59' W 005°14'.

Length 117 m; draft 6 m.

Type: Cargo ship. MMSI: 246611000.

Date/timePositionNaut miles runAvg speedWind from/ knotsBaromVisibWave heightAir tempDewpointWater temp
2018-Feb-20 16:03N 35°59' W 005°14'113.3
2018-Feb-20 16:00N 35°59' W 005°15'713.0
2018-Feb-20 15:30N 35°58' W 005°22'20210.3
2018-Feb-19 19:58N 36°43' W 009°27'510.6
2018-Feb-19 19:30N 36°46' W 009°31'510.4
2018-Feb-19 19:00N 36°51' W 009°33'510.1
2018-Feb-19 18:30N 36°56' W 009°34'510.1
2018-Feb-19 17:59N 37°01' W 009°36'510.3
2018-Feb-19 17:30N 37°06' W 009°37'510.4
2018-Feb-19 17:00N 37°11' W 009°38'610.3
2018-Feb-19 16:26N 37°17' W 009°40'410.2
2018-Feb-19 16:00N 37°21' W 009°41'510.3
2018-Feb-19 15:30N 37°26' W 009°43'510.9
2018-Feb-19 15:00N 37°32' W 009°44'710.7
2018-Feb-19 14:21N 37°38' W 009°46'410.6
2018-Feb-19 14:00N 37°42' W 009°47'510.3
2018-Feb-19 13:30N 37°47' W 009°49'510.4
2018-Feb-19 13:00N 37°52' W 009°50'510.5
2018-Feb-19 12:30N 37°57' W 009°52'510.6
2018-Feb-19 12:00N 38°02' W 009°53'510.8
2018-Feb-19 11:30N 38°08' W 009°55'510.9
2018-Feb-19 11:00N 38°13' W 009°57'611.0
2018-Feb-19 10:30N 38°18' W 009°58'510.8
2018-Feb-19 10:00N 38°24' W 009°60'4 7.6
2018-Feb-19 09:30N 38°27' W 010°01'510.8
2018-Feb-19 09:00N 38°32' W 010°03'511.0
2018-Feb-19 08:30N 38°38' W 010°04'510.7
2018-Feb-19 08:00N 38°43' W 010°06'510.3
2018-Feb-19 07:30N 38°48' W 010°05'510.8
2018-Feb-19 07:00N 38°54' W 010°05'510.8
2018-Feb-19 06:30N 38°59' W 010°05'510.5
2018-Feb-19 06:00N 39°04' W 010°05'510.0
2018-Feb-19 05:30N 39°09' W 010°05'510.4
2018-Feb-19 05:00N 39°14' W 010°05'510.2
2018-Feb-19 04:30N 39°19' W 010°05'710.4
2018-Feb-19 03:49N 39°27' W 010°05'310.5
2018-Feb-19 03:30N 39°30' W 010°05'610.5
2018-Feb-19 02:56N 39°36' W 010°05'2910.3
2018-Feb-19 00:07N 40°05' W 010°05'210.5
2018-Feb-18 23:57N 40°07' W 010°05'  
2018-Feb-16 16:39N 48°42' W 005°54'2 8.1
2018-Feb-16 16:23N 48°44' W 005°53'10 7.9
2018-Feb-16 15:07N 48°53' W 005°45'3 8.2
2018-Feb-16 14:44N 48°55' W 005°41'2 8.3
2018-Feb-16 14:30N 48°56' W 005°39'3510.0
2018-Feb-16 10:57N 49°14' W 004°52'68 9.5
2018-Feb-16 03:44N 49°47' W 003°21'310.1
2018-Feb-16 03:26N 49°49' W 003°17'510.7
2018-Feb-16 02:57N 49°52' W 003°10'511.2
2018-Feb-16 02:29N 49°54' W 003°03'611.6
2018-Feb-16 02:00N 49°57' W 002°56'1012.1
2018-Feb-16 01:11N 50°00' W 002°41'2411.0
2018-Feb-15 23:02N 50°07' W 002°06'1 9.2
2018-Feb-15 22:54N 50°07' W 002°04'3 8.8
2018-Feb-15 22:30N 50°08' W 001°59'4 8.1
2018-Feb-15 22:00N 50°09' W 001°52'4 7.4
2018-Feb-15 21:30N 50°10' W 001°47'3 6.8
2018-Feb-15 21:00N 50°11' W 001°42'3 6.5
2018-Feb-15 20:30N 50°12' W 001°37'3 6.4
2018-Feb-15 20:00N 50°13' W 001°32'3 6.6
2018-Feb-15 19:30N 50°14' W 001°27'4 6.9
2018-Feb-15 18:59N 50°15' W 001°22'3810.2
2018-Feb-15 15:16N 50°26' W 000°25'311.7
2018-Feb-15 15:00N 50°27' W 000°20'611.8
2018-Feb-15 14:30N 50°29' W 000°11'611.5
2018-Feb-15 14:00N 50°30' W 000°02'611.3
2018-Feb-15 13:30N 50°32' E 000°06'510.8
2018-Feb-15 13:00N 50°34' E 000°14'510.3
2018-Feb-15 12:30N 50°36' E 000°22'5 9.9
2018-Feb-15 12:00N 50°37' E 000°29'5 9.3
2018-Feb-15 11:30N 50°39' E 000°36'4 9.0
2018-Feb-15 11:00N 50°41' E 000°42'4 8.8
2018-Feb-15 10:30N 50°44' E 000°47'4 8.6
2018-Feb-15 10:00N 50°46' E 000°53'4 8.5
2018-Feb-15 09:30N 50°49' E 000°59'5 8.6
2018-Feb-15 08:59N 50°51' E 001°04'4 9.2
2018-Feb-15 08:30N 50°54' E 001°10'510.0
2018-Feb-15 08:00N 50°58' E 001°16'510.9
2018-Feb-15 07:30N 51°01' E 001°22'611.4
2018-Feb-15 07:00N 51°05' E 001°29'511.0
2018-Feb-15 06:30N 51°08' E 001°36'510.3
2018-Feb-15 06:00N 51°11' E 001°42'510.0
2018-Feb-15 05:30N 51°15' E 001°48'5 9.4
2018-Feb-15 05:00N 51°19' E 001°52'4 8.9
2018-Feb-15 04:30N 51°22' E 001°56'4 8.0
2018-Feb-15 04:00N 51°25' E 002°02'5 9.9
2018-Feb-15 03:30N 51°23' E 002°09'5 9.9
2018-Feb-15 03:00N 51°21' E 002°16'5 8.2
2018-Feb-15 02:25N 51°22' E 002°24'3 8.0
2018-Feb-15 02:00N 51°23' E 002°29'4 8.5
2018-Feb-15 01:30N 51°23' E 002°36'4 8.6
2018-Feb-15 00:59N 51°22' E 002°43'4 8.0
2018-Feb-15 00:28N 51°22' E 002°50'4 8.1
2018-Feb-15 00:00N 51°23' E 002°56'4 7.9
2018-Feb-14 23:30N 51°24' E 003°02'4 7.6
2018-Feb-14 23:00N 51°24' E 003°08'4 7.9
2018-Feb-14 22:30N 51°25' E 003°14'4 8.9
2018-Feb-14 22:00N 51°25' E 003°21'5 9.8
2018-Feb-14 21:30N 51°25' E 003°29'4 8.1
2018-Feb-14 21:00N 51°25' E 003°35'5 9.3
2018-Feb-14 20:30N 51°24' E 003°43'510.5
2018-Feb-14 20:00N 51°20' E 003°49'0 0.9
2018-Feb-14 19:30N 51°20' E 003°49'1 1.7
2018-Feb-14 19:00N 51°19' E 003°50'3 5.8
2018-Feb-14 18:30N 51°16' E 003°50'3 6.7
2018-Feb-14 18:00N 51°13' E 003°48'3 6.9
2018-Feb-14 17:30N 51°10' E 003°47'4 7.2
2018-Feb-14 17:00N 51°06' E 003°44'0 0.3
2018-Feb-14 16:15N 51°06' E 003°45'0 0.0
2018-Feb-14 16:00N 51°06' E 003°45'0 0.0
2018-Feb-14 15:24N 51°06' E 003°45'0 0.0
2018-Feb-14 15:00N 51°06' E 003°45'0 0.0
2018-Feb-14 14:15N 51°06' E 003°45'0 0.0
2018-Feb-14 13:57N 51°06' E 003°45'0 0.0
2018-Feb-14 13:30N 51°06' E 003°45'0 0.0
2018-Feb-14 12:57N 51°06' E 003°45'0 0.1
2018-Feb-14 12:30N 51°06' E 003°45'0 0.0
2018-Feb-14 11:57N 51°06' E 003°45'0 0.0
2018-Feb-14 11:30N 51°06' E 003°45'0 0.1
2018-Feb-14 10:57N 51°06' E 003°45'0 0.1
2018-Feb-14 10:30N 51°06' E 003°45'0 0.0
2018-Feb-14 09:57N 51°06' E 003°45'0 0.0
2018-Feb-14 09:27N 51°06' E 003°45'0 0.0
2018-Feb-14 08:57N 51°06' E 003°45'0 0.0
2018-Feb-14 08:27N 51°06' E 003°45'0 0.0
2018-Feb-14 07:57N 51°06' E 003°45'0 0.1
2018-Feb-14 07:27N 51°06' E 003°45'0 0.0
2018-Feb-14 06:54N 51°06' E 003°45'0 0.0
2018-Feb-14 06:30N 51°06' E 003°45'0 0.0
2018-Feb-14 05:51N 51°06' E 003°45'0 0.0
2018-Feb-14 05:27N 51°06' E 003°45'0 0.0
2018-Feb-14 04:57N 51°06' E 003°45'0 0.0
2018-Feb-14 04:30N 51°06' E 003°45'0 0.0
2018-Feb-14 04:00N 51°06' E 003°45'0 0.0
2018-Feb-14 03:15N 51°06' E 003°45'0 0.0
2018-Feb-14 02:57N 51°06' E 003°45'0 0.0
2018-Feb-14 02:30N 51°06' E 003°45'0 0.0
2018-Feb-14 01:54N 51°06' E 003°45'0 0.0
2018-Feb-14 01:30N 51°06' E 003°45'0 0.0
2018-Feb-14 01:00N 51°06' E 003°45'0 0.0
2018-Feb-14 00:21N 51°06' E 003°45'0 0.0
2018-Feb-14 00:00N 51°06' E 003°45'0 0.0
2018-Feb-13 23:27N 51°06' E 003°45'0 0.0
2018-Feb-13 23:00N 51°06' E 003°45'0 0.0
2018-Feb-13 22:21N 51°06' E 003°45'0 0.0
2018-Feb-13 22:00N 51°06' E 003°45'0 0.0
2018-Feb-13 21:27N 51°06' E 003°45'0 0.0
2018-Feb-13 20:51N 51°06' E 003°45'0 0.0
2018-Feb-13 20:27N 51°06' E 003°45'0 0.0
2018-Feb-13 20:00N 51°06' E 003°45'0 0.0
2018-Feb-13 19:15N 51°06' E 003°45'0 0.0
2018-Feb-13 18:57N 51°06' E 003°45'0 0.0
2018-Feb-13 18:27N 51°06' E 003°45'0 0.0
2018-Feb-13 17:57N 51°06' E 003°45'0 0.0
2018-Feb-13 17:27N 51°06' E 003°45'0 0.0
2018-Feb-13 16:57N 51°06' E 003°45'0 0.0
2018-Feb-13 16:30N 51°06' E 003°45'0 0.0
2018-Feb-13 15:54N 51°06' E 003°45'0 0.0
2018-Feb-13 15:27N 51°06' E 003°45'0 0.0
2018-Feb-13 15:00N 51°06' E 003°45'0 0.0
2018-Feb-13 14:30N 51°06' E 003°45'0 0.0
2018-Feb-13 14:00N 51°06' E 003°45'0 0.0
2018-Feb-13 13:30N 51°06' E 003°45'0 0.0
2018-Feb-13 12:54N 51°06' E 003°45'0 0.0
2018-Feb-13 12:30N 51°06' E 003°45'0 0.0
2018-Feb-13 12:00N 51°06' E 003°45'0 0.0
2018-Feb-13 11:27N 51°06' E 003°45'0 0.0
2018-Feb-13 11:00N 51°06' E 003°45'0 0.0
2018-Feb-13 10:27N 51°06' E 003°45'0 0.0
2018-Feb-13 10:00N 51°06' E 003°45'0 0.0
2018-Feb-13 09:27N 51°06' E 003°45'0 0.0
2018-Feb-13 08:57N 51°06' E 003°45'0 0.0
2018-Feb-13 08:30N 51°06' E 003°45'0 0.0
2018-Feb-13 08:00N 51°06' E 003°45'0 0.0
2018-Feb-13 07:27N 51°06' E 003°45'0 0.0
2018-Feb-13 07:00N 51°06' E 003°45'0 0.0
2018-Feb-13 06:27N 51°06' E 003°45'0 0.0
2018-Feb-13 06:00N 51°06' E 003°45'0 0.0
2018-Feb-13 05:24N 51°06' E 003°45'0 0.0
2018-Feb-13 05:00N 51°06' E 003°45'0 0.0
2018-Feb-13 04:24N 51°06' E 003°45'0 0.0
2018-Feb-13 04:00N 51°06' E 003°45'0 0.0
2018-Feb-13 03:27N 51°06' E 003°45'0 0.0
2018-Feb-13 03:00N 51°06' E 003°45'0 0.0
2018-Feb-13 02:27N 51°06' E 003°45'0 0.0
2018-Feb-13 01:57N 51°06' E 003°45'0 0.0
2018-Feb-13 01:27N 51°06' E 003°45'0 0.0
2018-Feb-13 00:51N 51°06' E 003°45'0 0.0
2018-Feb-13 00:21N 51°06' E 003°45'0 0.0
2018-Feb-12 23:57N 51°06' E 003°45'0 0.0
2018-Feb-12 23:30N 51°06' E 003°45'0 0.0
2018-Feb-12 22:57N 51°06' E 003°45'0 0.0
2018-Feb-12 22:30N 51°06' E 003°45'0 0.0
2018-Feb-12 21:54N 51°06' E 003°45'0 0.0
2018-Feb-12 21:27N 51°06' E 003°45'0 0.0
2018-Feb-12 20:57N 51°06' E 003°45'0 0.0
2018-Feb-12 20:30N 51°06' E 003°45'0 0.0
2018-Feb-12 19:57N 51°06' E 003°45'0 0.0
2018-Feb-12 19:30N 51°06' E 003°45'0 0.0
2018-Feb-12 18:54N 51°06' E 003°45'0 0.0
2018-Feb-12 18:30N 51°06' E 003°45'0 0.0
2018-Feb-12 17:57N 51°06' E 003°45'0 0.0
2018-Feb-12 17:30N 51°06' E 003°45'0 0.0
2018-Feb-12 16:54N 51°06' E 003°45'0 0.0
2018-Feb-12 16:30N 51°06' E 003°45'0 0.0
2018-Feb-12 16:00N 51°06' E 003°45'0 0.0
2018-Feb-12 15:12N 51°06' E 003°45'0 0.0
2018-Feb-12 15:00N 51°06' E 003°45'0 0.0
2018-Feb-12 14:21N 51°06' E 003°45'0 0.0
2018-Feb-12 13:57N 51°06' E 003°45'0 0.0
2018-Feb-12 13:27N 51°06' E 003°45'0 0.0
2018-Feb-12 13:00N 51°06' E 003°45'0 0.0
2018-Feb-12 12:24N 51°06' E 003°45'0 0.0
2018-Feb-12 12:00N 51°06' E 003°45'0 0.0
2018-Feb-12 11:27N 51°06' E 003°45'0 0.0
2018-Feb-12 11:00N 51°06' E 003°45'0 0.0
2018-Feb-12 10:27N 51°06' E 003°45'0 0.0
2018-Feb-12 10:00N 51°06' E 003°45'0 0.0
2018-Feb-12 09:27N 51°06' E 003°45'0 0.0
2018-Feb-12 09:00N 51°06' E 003°45'0 0.0
2018-Feb-12 08:27N 51°06' E 003°45'0 0.0
2018-Feb-12 07:51N 51°06' E 003°45'0 0.0
2018-Feb-12 07:30N 51°06' E 003°45'0 0.0
2018-Feb-12 06:57N 51°06' E 003°45'0 0.0
2018-Feb-12 06:30N 51°06' E 003°45'0 0.0
2018-Feb-12 05:57N 51°06' E 003°45'0 0.0
2018-Feb-12 05:30N 51°06' E 003°45'0 0.0
2018-Feb-12 04:54N 51°06' E 003°45'0 0.0
2018-Feb-12 04:30N 51°06' E 003°45'0 0.0
2018-Feb-12 03:57N 51°06' E 003°45'0 0.0
2018-Feb-12 03:30N 51°06' E 003°45'0 0.0
2018-Feb-12 02:57N 51°06' E 003°45'0 0.0
2018-Feb-12 02:30N 51°06' E 003°45'0 0.0
2018-Feb-12 01:57N 51°06' E 003°45'0 0.0
2018-Feb-12 01:30N 51°06' E 003°45'0 0.0
2018-Feb-12 00:57N 51°06' E 003°45'0 0.0
2018-Feb-12 00:30N 51°06' E 003°45'0 0.0
2018-Feb-12 00:00N 51°06' E 003°45'0 0.0
2018-Feb-11 23:21N 51°06' E 003°45'0 0.0
2018-Feb-11 22:57N 51°06' E 003°45'0 0.0
2018-Feb-11 22:30N 51°06' E 003°45'0 0.0
2018-Feb-11 22:00N 51°06' E 003°45'0 0.0
2018-Feb-11 21:27N 51°06' E 003°45'0 0.0
2018-Feb-11 20:57N 51°06' E 003°45'0 0.0
2018-Feb-11 20:27N 51°06' E 003°45'0 0.0
2018-Feb-11 19:57N 51°06' E 003°45'0 0.0
2018-Feb-11 19:27N 51°06' E 003°45'0 0.0
2018-Feb-11 19:00N 51°06' E 003°45'0 0.0
2018-Feb-11 18:27N 51°06' E 003°45'0 0.0
2018-Feb-11 18:00N 51°06' E 003°45'0 0.0
2018-Feb-11 17:27N 51°06' E 003°45'0 0.0
2018-Feb-11 16:51N 51°06' E 003°45'0 0.0
2018-Feb-11 16:27N 51°06' E 003°45'0 0.0
2018-Feb-11 16:00N 51°06' E 003°45'0 0.0
2018-Feb-11 15:30N 51°06' E 003°45'0 0.0
2018-Feb-11 14:54N 51°06' E 003°45'0 0.0
2018-Feb-11 14:27N 51°06' E 003°45'0 0.0
2018-Feb-11 13:57N 51°06' E 003°45'0 0.0
2018-Feb-11 13:30N 51°06' E 003°45'0 0.0
2018-Feb-11 12:57N 51°06' E 003°45'0 0.0
2018-Feb-11 12:30N 51°06' E 003°45'0 0.0
2018-Feb-11 11:57N 51°06' E 003°45'0 0.0
2018-Feb-11 11:29N 51°06' E 003°45'0 0.0
2018-Feb-11 10:56N 51°06' E 003°45'0 0.0
2018-Feb-11 10:29N 51°06' E 003°45'0 0.0
2018-Feb-11 09:56N 51°06' E 003°45'0 0.0
2018-Feb-11 09:29N 51°06' E 003°45'0 0.0
2018-Feb-11 08:56N 51°06' E 003°45'0 0.0
2018-Feb-11 08:29N 51°06' E 003°45'0 0.0
2018-Feb-11 07:53N 51°06' E 003°45'0 0.0
2018-Feb-11 07:29N 51°06' E 003°45'0 0.0
2018-Feb-11 06:59N 51°06' E 003°45'0 0.0
2018-Feb-11 06:23N 51°06' E 003°45'0 0.0
2018-Feb-11 05:59N 51°06' E 003°45'0 0.0
2018-Feb-11 05:20N 51°06' E 003°45'0 0.0
2018-Feb-11 04:59N 51°06' E 003°45'0 0.0
2018-Feb-11 04:26N 51°06' E 003°45'0 0.0
2018-Feb-11 03:59N 51°06' E 003°45'0 0.0
2018-Feb-11 03:14N 51°06' E 003°45'0 0.0
2018-Feb-11 02:59N 51°06' E 003°45'0 0.0
2018-Feb-11 02:26N 51°06' E 003°45'0 0.0
2018-Feb-11 01:59N 51°06' E 003°45'0 0.0
2018-Feb-11 01:26N 51°06' E 003°45'0 0.0
2018-Feb-11 00:59N 51°06' E 003°45'0 0.0
2018-Feb-11 00:26N 51°06' E 003°45'0 0.0
2018-Feb-10 23:59N 51°06' E 003°45'0 0.0
2018-Feb-10 23:26N 51°06' E 003°45'0 0.0
2018-Feb-10 22:56N 51°06' E 003°45'0 0.0
2018-Feb-10 22:29N 51°06' E 003°45'0 0.0
2018-Feb-10 21:56N 51°06' E 003°45'0 0.0
2018-Feb-10 21:29N 51°06' E 003°45'0 0.0
2018-Feb-10 20:56N 51°06' E 003°45'0 0.0
2018-Feb-10 20:29N 51°06' E 003°45'0 0.0
2018-Feb-10 19:50N 51°06' E 003°45'0 0.0
2018-Feb-10 19:29N 51°06' E 003°45'0 0.0
2018-Feb-10 18:56N 51°06' E 003°45'0 0.0
2018-Feb-10 18:29N 51°06' E 003°45'0 0.0
2018-Feb-10 17:59N 51°06' E 003°45'0 0.0
2018-Feb-10 17:23N 51°06' E 003°45'0 0.0
2018-Feb-10 16:59N 51°06' E 003°45'0 0.0
2018-Feb-10 16:23N 51°06' E 003°45'  
Track history (hours):
 
Tides and Currents Weather Stations Pressure Air Temp Water Temp Dewpoint Dewpoint Depression Visibility Wind Speed Wind Dir Waves Ship Positions

Cfl Proud

Last reported at 2018-Feb-20 16:03 UTC. Time now 2018-Feb-22 10:40 UTC.
Position N 35°59' W 005°14'.

Length 117 m; draft 6 m.

Type: Cargo ship. MMSI: 246611000.

Date/timePositionNaut miles runAvg speedWind from/ knotsBaromVisibWave heightAir tempDewpointWater temp
2018-Feb-20 16:03N 35°59' W 005°14'113.3
2018-Feb-20 16:00N 35°59' W 005°15'713.0
2018-Feb-20 15:30N 35°58' W 005°22'20210.3
2018-Feb-19 19:58N 36°43' W 009°27'510.6
2018-Feb-19 19:30N 36°46' W 009°31'510.4
2018-Feb-19 19:00N 36°51' W 009°33'510.1
2018-Feb-19 18:30N 36°56' W 009°34'510.1
2018-Feb-19 17:59N 37°01' W 009°36'510.3
2018-Feb-19 17:30N 37°06' W 009°37'510.4
2018-Feb-19 17:00N 37°11' W 009°38'610.3
2018-Feb-19 16:26N 37°17' W 009°40'410.2
2018-Feb-19 16:00N 37°21' W 009°41'510.3
2018-Feb-19 15:30N 37°26' W 009°43'510.9
2018-Feb-19 15:00N 37°32' W 009°44'710.7
2018-Feb-19 14:21N 37°38' W 009°46'410.6
2018-Feb-19 14:00N 37°42' W 009°47'510.3
2018-Feb-19 13:30N 37°47' W 009°49'510.4
2018-Feb-19 13:00N 37°52' W 009°50'510.5
2018-Feb-19 12:30N 37°57' W 009°52'510.6
2018-Feb-19 12:00N 38°02' W 009°53'510.8
2018-Feb-19 11:30N 38°08' W 009°55'510.9
2018-Feb-19 11:00N 38°13' W 009°57'611.0
2018-Feb-19 10:30N 38°18' W 009°58'510.8
2018-Feb-19 10:00N 38°24' W 009°60'4 7.6
2018-Feb-19 09:30N 38°27' W 010°01'510.8
2018-Feb-19 09:00N 38°32' W 010°03'511.0
2018-Feb-19 08:30N 38°38' W 010°04'510.7
2018-Feb-19 08:00N 38°43' W 010°06'510.3
2018-Feb-19 07:30N 38°48' W 010°05'510.8
2018-Feb-19 07:00N 38°54' W 010°05'510.8
2018-Feb-19 06:30N 38°59' W 010°05'510.5
2018-Feb-19 06:00N 39°04' W 010°05'510.0
2018-Feb-19 05:30N 39°09' W 010°05'510.4
2018-Feb-19 05:00N 39°14' W 010°05'510.2
2018-Feb-19 04:30N 39°19' W 010°05'710.4
2018-Feb-19 03:49N 39°27' W 010°05'310.5
2018-Feb-19 03:30N 39°30' W 010°05'610.5
2018-Feb-19 02:56N 39°36' W 010°05'2910.3
2018-Feb-19 00:07N 40°05' W 010°05'210.5
2018-Feb-18 23:57N 40°07' W 010°05'  
2018-Feb-16 16:39N 48°42' W 005°54'2 8.1
2018-Feb-16 16:23N 48°44' W 005°53'10 7.9
2018-Feb-16 15:07N 48°53' W 005°45'3 8.2
2018-Feb-16 14:44N 48°55' W 005°41'2 8.3
2018-Feb-16 14:30N 48°56' W 005°39'3510.0
2018-Feb-16 10:57N 49°14' W 004°52'68 9.5
2018-Feb-16 03:44N 49°47' W 003°21'310.1
2018-Feb-16 03:26N 49°49' W 003°17'510.7
2018-Feb-16 02:57N 49°52' W 003°10'511.2
2018-Feb-16 02:29N 49°54' W 003°03'611.6
2018-Feb-16 02:00N 49°57' W 002°56'1012.1
2018-Feb-16 01:11N 50°00' W 002°41'2411.0
2018-Feb-15 23:02N 50°07' W 002°06'1 9.2
2018-Feb-15 22:54N 50°07' W 002°04'3 8.8
2018-Feb-15 22:30N 50°08' W 001°59'4 8.1
2018-Feb-15 22:00N 50°09' W 001°52'4 7.4
2018-Feb-15 21:30N 50°10' W 001°47'3 6.8
2018-Feb-15 21:00N 50°11' W 001°42'3 6.5
2018-Feb-15 20:30N 50°12' W 001°37'3 6.4
2018-Feb-15 20:00N 50°13' W 001°32'3 6.6
2018-Feb-15 19:30N 50°14' W 001°27'4 6.9
2018-Feb-15 18:59N 50°15' W 001°22'3810.2
2018-Feb-15 15:16N 50°26' W 000°25'311.7
2018-Feb-15 15:00N 50°27' W 000°20'611.8
2018-Feb-15 14:30N 50°29' W 000°11'611.5
2018-Feb-15 14:00N 50°30' W 000°02'611.3
2018-Feb-15 13:30N 50°32' E 000°06'510.8
2018-Feb-15 13:00N 50°34' E 000°14'510.3
2018-Feb-15 12:30N 50°36' E 000°22'5 9.9
2018-Feb-15 12:00N 50°37' E 000°29'5 9.3
2018-Feb-15 11:30N 50°39' E 000°36'4 9.0
2018-Feb-15 11:00N 50°41' E 000°42'4 8.8
2018-Feb-15 10:30N 50°44' E 000°47'4 8.6
2018-Feb-15 10:00N 50°46' E 000°53'4 8.5
2018-Feb-15 09:30N 50°49' E 000°59'5 8.6
2018-Feb-15 08:59N 50°51' E 001°04'4 9.2
2018-Feb-15 08:30N 50°54' E 001°10'510.0
2018-Feb-15 08:00N 50°58' E 001°16'510.9
2018-Feb-15 07:30N 51°01' E 001°22'611.4
2018-Feb-15 07:00N 51°05' E 001°29'511.0
2018-Feb-15 06:30N 51°08' E 001°36'510.3
2018-Feb-15 06:00N 51°11' E 001°42'510.0
2018-Feb-15 05:30N 51°15' E 001°48'5 9.4
2018-Feb-15 05:00N 51°19' E 001°52'4 8.9
2018-Feb-15 04:30N 51°22' E 001°56'4 8.0
2018-Feb-15 04:00N 51°25' E 002°02'5 9.9
2018-Feb-15 03:30N 51°23' E 002°09'5 9.9
2018-Feb-15 03:00N 51°21' E 002°16'5 8.2
2018-Feb-15 02:25N 51°22' E 002°24'3 8.0
2018-Feb-15 02:00N 51°23' E 002°29'4 8.5
2018-Feb-15 01:30N 51°23' E 002°36'4 8.6
2018-Feb-15 00:59N 51°22' E 002°43'4 8.0
2018-Feb-15 00:28N 51°22' E 002°50'4 8.1
2018-Feb-15 00:00N 51°23' E 002°56'4 7.9
2018-Feb-14 23:30N 51°24' E 003°02'4 7.6
2018-Feb-14 23:00N 51°24' E 003°08'4 7.9
2018-Feb-14 22:30N 51°25' E 003°14'4 8.9
2018-Feb-14 22:00N 51°25' E 003°21'5 9.8
2018-Feb-14 21:30N 51°25' E 003°29'4 8.1
2018-Feb-14 21:00N 51°25' E 003°35'5 9.3
2018-Feb-14 20:30N 51°24' E 003°43'510.5
2018-Feb-14 20:00N 51°20' E 003°49'0 0.9
2018-Feb-14 19:30N 51°20' E 003°49'1 1.7
2018-Feb-14 19:00N 51°19' E 003°50'3 5.8
2018-Feb-14 18:30N 51°16' E 003°50'3 6.7
2018-Feb-14 18:00N 51°13' E 003°48'3 6.9
2018-Feb-14 17:30N 51°10' E 003°47'4 7.2
2018-Feb-14 17:00N 51°06' E 003°44'0 0.3
2018-Feb-14 16:15N 51°06' E 003°45'0 0.0
2018-Feb-14 16:00N 51°06' E 003°45'0 0.0
2018-Feb-14 15:24N 51°06' E 003°45'0 0.0
2018-Feb-14 15:00N 51°06' E 003°45'0 0.0
2018-Feb-14 14:15N 51°06' E 003°45'0 0.0
2018-Feb-14 13:57N 51°06' E 003°45'0 0.0
2018-Feb-14 13:30N 51°06' E 003°45'0 0.0
2018-Feb-14 12:57N 51°06' E 003°45'0 0.1
2018-Feb-14 12:30N 51°06' E 003°45'0 0.0
2018-Feb-14 11:57N 51°06' E 003°45'0 0.0
2018-Feb-14 11:30N 51°06' E 003°45'0 0.1
2018-Feb-14 10:57N 51°06' E 003°45'0 0.1
2018-Feb-14 10:30N 51°06' E 003°45'0 0.0
2018-Feb-14 09:57N 51°06' E 003°45'0 0.0
2018-Feb-14 09:27N 51°06' E 003°45'0 0.0
2018-Feb-14 08:57N 51°06' E 003°45'0 0.0
2018-Feb-14 08:27N 51°06' E 003°45'0 0.0
2018-Feb-14 07:57N 51°06' E 003°45'0 0.1
2018-Feb-14 07:27N 51°06' E 003°45'0 0.0
2018-Feb-14 06:54N 51°06' E 003°45'0 0.0
2018-Feb-14 06:30N 51°06' E 003°45'0 0.0
2018-Feb-14 05:51N 51°06' E 003°45'0 0.0
2018-Feb-14 05:27N 51°06' E 003°45'0 0.0
2018-Feb-14 04:57N 51°06' E 003°45'0 0.0
2018-Feb-14 04:30N 51°06' E 003°45'0 0.0
2018-Feb-14 04:00N 51°06' E 003°45'0 0.0
2018-Feb-14 03:15N 51°06' E 003°45'0 0.0
2018-Feb-14 02:57N 51°06' E 003°45'0 0.0
2018-Feb-14 02:30N 51°06' E 003°45'0 0.0
2018-Feb-14 01:54N 51°06' E 003°45'0 0.0
2018-Feb-14 01:30N 51°06' E 003°45'0 0.0
2018-Feb-14 01:00N 51°06' E 003°45'0 0.0
2018-Feb-14 00:21N 51°06' E 003°45'0 0.0
2018-Feb-14 00:00N 51°06' E 003°45'0 0.0
2018-Feb-13 23:27N 51°06' E 003°45'0 0.0
2018-Feb-13 23:00N 51°06' E 003°45'0 0.0
2018-Feb-13 22:21N 51°06' E 003°45'0 0.0
2018-Feb-13 22:00N 51°06' E 003°45'0 0.0
2018-Feb-13 21:27N 51°06' E 003°45'0 0.0
2018-Feb-13 20:51N 51°06' E 003°45'0 0.0
2018-Feb-13 20:27N 51°06' E 003°45'0 0.0
2018-Feb-13 20:00N 51°06' E 003°45'0 0.0
2018-Feb-13 19:15N 51°06' E 003°45'0 0.0
2018-Feb-13 18:57N 51°06' E 003°45'0 0.0
2018-Feb-13 18:27N 51°06' E 003°45'0 0.0
2018-Feb-13 17:57N 51°06' E 003°45'0 0.0
2018-Feb-13 17:27N 51°06' E 003°45'0 0.0
2018-Feb-13 16:57N 51°06' E 003°45'0 0.0
2018-Feb-13 16:30N 51°06' E 003°45'0 0.0
2018-Feb-13 15:54N 51°06' E 003°45'0 0.0
2018-Feb-13 15:27N 51°06' E 003°45'0 0.0
2018-Feb-13 15:00N 51°06' E 003°45'0 0.0
2018-Feb-13 14:30N 51°06' E 003°45'0 0.0
2018-Feb-13 14:00N 51°06' E 003°45'0 0.0
2018-Feb-13 13:30N 51°06' E 003°45'0 0.0
2018-Feb-13 12:54N 51°06' E 003°45'0 0.0
2018-Feb-13 12:30N 51°06' E 003°45'0 0.0
2018-Feb-13 12:00N 51°06' E 003°45'0 0.0
2018-Feb-13 11:27N 51°06' E 003°45'0 0.0
2018-Feb-13 11:00N 51°06' E 003°45'0 0.0
2018-Feb-13 10:27N 51°06' E 003°45'0 0.0
2018-Feb-13 10:00N 51°06' E 003°45'0 0.0
2018-Feb-13 09:27N 51°06' E 003°45'0 0.0
2018-Feb-13 08:57N 51°06' E 003°45'0 0.0
2018-Feb-13 08:30N 51°06' E 003°45'0 0.0
2018-Feb-13 08:00N 51°06' E 003°45'0 0.0
2018-Feb-13 07:27N 51°06' E 003°45'0 0.0
2018-Feb-13 07:00N 51°06' E 003°45'0 0.0
2018-Feb-13 06:27N 51°06' E 003°45'0 0.0
2018-Feb-13 06:00N 51°06' E 003°45'0 0.0
2018-Feb-13 05:24N 51°06' E 003°45'0 0.0
2018-Feb-13 05:00N 51°06' E 003°45'0 0.0
2018-Feb-13 04:24N 51°06' E 003°45'0 0.0
2018-Feb-13 04:00N 51°06' E 003°45'0 0.0
2018-Feb-13 03:27N 51°06' E 003°45'0 0.0
2018-Feb-13 03:00N 51°06' E 003°45'0 0.0
2018-Feb-13 02:27N 51°06' E 003°45'0 0.0
2018-Feb-13 01:57N 51°06' E 003°45'0 0.0
2018-Feb-13 01:27N 51°06' E 003°45'0 0.0
2018-Feb-13 00:51N 51°06' E 003°45'0 0.0
2018-Feb-13 00:21N 51°06' E 003°45'0 0.0
2018-Feb-12 23:57N 51°06' E 003°45'0 0.0
2018-Feb-12 23:30N 51°06' E 003°45'0 0.0
2018-Feb-12 22:57N 51°06' E 003°45'0 0.0
2018-Feb-12 22:30N 51°06' E 003°45'0 0.0
2018-Feb-12 21:54N 51°06' E 003°45'0 0.0
2018-Feb-12 21:27N 51°06' E 003°45'0 0.0
2018-Feb-12 20:57N 51°06' E 003°45'0 0.0
2018-Feb-12 20:30N 51°06' E 003°45'0 0.0
2018-Feb-12 19:57N 51°06' E 003°45'0 0.0
2018-Feb-12 19:30N 51°06' E 003°45'0 0.0
2018-Feb-12 18:54N 51°06' E 003°45'0 0.0
2018-Feb-12 18:30N 51°06' E 003°45'0 0.0
2018-Feb-12 17:57N 51°06' E 003°45'0 0.0
2018-Feb-12 17:30N 51°06' E 003°45'0 0.0
2018-Feb-12 16:54N 51°06' E 003°45'0 0.0
2018-Feb-12 16:30N 51°06' E 003°45'0 0.0
2018-Feb-12 16:00N 51°06' E 003°45'0 0.0
2018-Feb-12 15:12N 51°06' E 003°45'0 0.0
2018-Feb-12 15:00N 51°06' E 003°45'0 0.0
2018-Feb-12 14:21N 51°06' E 003°45'0 0.0
2018-Feb-12 13:57N 51°06' E 003°45'0 0.0
2018-Feb-12 13:27N 51°06' E 003°45'0 0.0
2018-Feb-12 13:00N 51°06' E 003°45'0 0.0
2018-Feb-12 12:24N 51°06' E 003°45'0 0.0
2018-Feb-12 12:00N 51°06' E 003°45'0 0.0
2018-Feb-12 11:27N 51°06' E 003°45'0 0.0
2018-Feb-12 11:00N 51°06' E 003°45'0 0.0
2018-Feb-12 10:27N 51°06' E 003°45'0 0.0
2018-Feb-12 10:00N 51°06' E 003°45'0 0.0
2018-Feb-12 09:27N 51°06' E 003°45'0 0.0
2018-Feb-12 09:00N 51°06' E 003°45'0 0.0
2018-Feb-12 08:27N 51°06' E 003°45'0 0.0
2018-Feb-12 07:51N 51°06' E 003°45'0 0.0
2018-Feb-12 07:30N 51°06' E 003°45'0 0.0
2018-Feb-12 06:57N 51°06' E 003°45'0 0.0
2018-Feb-12 06:30N 51°06' E 003°45'0 0.0
2018-Feb-12 05:57N 51°06' E 003°45'0 0.0
2018-Feb-12 05:30N 51°06' E 003°45'0 0.0
2018-Feb-12 04:54N 51°06' E 003°45'0 0.0
2018-Feb-12 04:30N 51°06' E 003°45'0 0.0
2018-Feb-12 03:57N 51°06' E 003°45'0 0.0
2018-Feb-12 03:30N 51°06' E 003°45'0 0.0
2018-Feb-12 02:57N 51°06' E 003°45'0 0.0
2018-Feb-12 02:30N 51°06' E 003°45'0 0.0
2018-Feb-12 01:57N 51°06' E 003°45'0 0.0
2018-Feb-12 01:30N 51°06' E 003°45'0 0.0
2018-Feb-12 00:57N 51°06' E 003°45'0 0.0
2018-Feb-12 00:30N 51°06' E 003°45'0 0.0
2018-Feb-12 00:00N 51°06' E 003°45'0 0.0
2018-Feb-11 23:21N 51°06' E 003°45'0 0.0
2018-Feb-11 22:57N 51°06' E 003°45'0 0.0
2018-Feb-11 22:30N 51°06' E 003°45'0 0.0
2018-Feb-11 22:00N 51°06' E 003°45'0 0.0
2018-Feb-11 21:27N 51°06' E 003°45'0 0.0
2018-Feb-11 20:57N 51°06' E 003°45'0 0.0
2018-Feb-11 20:27N 51°06' E 003°45'0 0.0
2018-Feb-11 19:57N 51°06' E 003°45'0 0.0
2018-Feb-11 19:27N 51°06' E 003°45'0 0.0
2018-Feb-11 19:00N 51°06' E 003°45'0 0.0
2018-Feb-11 18:27N 51°06' E 003°45'0 0.0
2018-Feb-11 18:00N 51°06' E 003°45'0 0.0
2018-Feb-11 17:27N 51°06' E 003°45'0 0.0
2018-Feb-11 16:51N 51°06' E 003°45'0 0.0
2018-Feb-11 16:27N 51°06' E 003°45'0 0.0
2018-Feb-11 16:00N 51°06' E 003°45'0 0.0
2018-Feb-11 15:30N 51°06' E 003°45'0 0.0
2018-Feb-11 14:54N 51°06' E 003°45'0 0.0
2018-Feb-11 14:27N 51°06' E 003°45'0 0.0
2018-Feb-11 13:57N 51°06' E 003°45'0 0.0
2018-Feb-11 13:30N 51°06' E 003°45'0 0.0
2018-Feb-11 12:57N 51°06' E 003°45'0 0.0
2018-Feb-11 12:30N 51°06' E 003°45'0 0.0
2018-Feb-11 11:57N 51°06' E 003°45'0 0.0
2018-Feb-11 11:29N 51°06' E 003°45'0 0.0
2018-Feb-11 10:56N 51°06' E 003°45'0 0.0
2018-Feb-11 10:29N 51°06' E 003°45'0 0.0
2018-Feb-11 09:56N 51°06' E 003°45'0 0.0
2018-Feb-11 09:29N 51°06' E 003°45'0 0.0
2018-Feb-11 08:56N 51°06' E 003°45'0 0.0
2018-Feb-11 08:29N 51°06' E 003°45'0 0.0
2018-Feb-11 07:53N 51°06' E 003°45'0 0.0
2018-Feb-11 07:29N 51°06' E 003°45'0 0.0
2018-Feb-11 06:59N 51°06' E 003°45'0 0.0
2018-Feb-11 06:23N 51°06' E 003°45'0 0.0
2018-Feb-11 05:59N 51°06' E 003°45'0 0.0
2018-Feb-11 05:20N 51°06' E 003°45'0 0.0
2018-Feb-11 04:59N 51°06' E 003°45'0 0.0
2018-Feb-11 04:26N 51°06' E 003°45'0 0.0
2018-Feb-11 03:59N 51°06' E 003°45'0 0.0
2018-Feb-11 03:14N 51°06' E 003°45'0 0.0
2018-Feb-11 02:59N 51°06' E 003°45'0 0.0
2018-Feb-11 02:26N 51°06' E 003°45'0 0.0
2018-Feb-11 01:59N 51°06' E 003°45'0 0.0
2018-Feb-11 01:26N 51°06' E 003°45'0 0.0
2018-Feb-11 00:59N 51°06' E 003°45'0 0.0
2018-Feb-11 00:26N 51°06' E 003°45'0 0.0
2018-Feb-10 23:59N 51°06' E 003°45'0 0.0
2018-Feb-10 23:26N 51°06' E 003°45'0 0.0
2018-Feb-10 22:56N 51°06' E 003°45'0 0.0
2018-Feb-10 22:29N 51°06' E 003°45'0 0.0
2018-Feb-10 21:56N 51°06' E 003°45'0 0.0
2018-Feb-10 21:29N 51°06' E 003°45'0 0.0
2018-Feb-10 20:56N 51°06' E 003°45'0 0.0
2018-Feb-10 20:29N 51°06' E 003°45'0 0.0
2018-Feb-10 19:50N 51°06' E 003°45'0 0.0
2018-Feb-10 19:29N 51°06' E 003°45'0 0.0
2018-Feb-10 18:56N 51°06' E 003°45'0 0.0
2018-Feb-10 18:29N 51°06' E 003°45'0 0.0
2018-Feb-10 17:59N 51°06' E 003°45'0 0.0
2018-Feb-10 17:23N 51°06' E 003°45'0 0.0
2018-Feb-10 16:59N 51°06' E 003°45'0 0.0
2018-Feb-10 16:23N 51°06' E 003°45'  

Dump ship's entire track history